Time;durP1;ratioP1;P1;durP2;ratioP2;P2;SDS_P1;SDS_P2;PMS_P1;PMS_P2;Temp;Humidity;BMP_temperature;BMP_pressure;BME280_temperature;BME280_humidity;BME280_pressure;Samples;Min_cycle;Max_cycle;Signal;HPM_P1;HPM_P2
2022/11/08 00:02:02;;;;;;;4.18;2.45;;;13.40;99.90;;;;;;5041462;28;20194;-77
2022/11/08 00:04:29;;;;;;;6.00;2.15;;;13.40;99.90;;;;;;5039637;28;20210;-76
2022/11/08 00:15:11;;;;;;;5.80;2.58;;;13.20;99.90;;;;;;5046180;28;20190;-76
2022/11/08 00:17:40;;;;;;;7.75;2.20;;;13.20;99.90;;;;;;5051844;28;20568;-76
2022/11/08 00:20:29;;;;;;;6.70;2.65;;;13.20;99.90;;;;;;5036623;28;20201;-76
2022/11/08 00:22:57;;;;;;;3.45;1.80;;;13.10;99.90;;;;;;5056067;28;20257;-76
2022/11/08 00:25:24;;;;;;;7.40;2.50;;;13.10;99.90;;;;;;5043005;28;20198;-76
2022/11/08 00:27:52;;;;;;;8.48;2.58;;;13.00;99.90;;;;;;5053026;28;20190;-77
2022/11/08 00:30:19;;;;;;;5.80;2.72;;;13.00;99.90;;;;;;5040430;28;20205;-77
2022/11/08 00:32:48;;;;;;;5.90;2.53;;;13.00;99.90;;;;;;5038651;28;20219;-79
2022/11/08 00:35:16;;;;;;;4.88;2.20;;;12.90;99.90;;;;;;5049261;28;20563;-76
2022/11/08 00:37:43;;;;;;;6.03;2.40;;;12.90;99.90;;;;;;5039710;28;20225;-76
2022/11/08 00:40:12;;;;;;;4.32;2.65;;;12.90;99.90;;;;;;5040905;28;20203;-77
2022/11/08 00:42:39;;;;;;;6.18;2.60;;;12.90;99.90;;;;;;5039260;28;20226;-76
2022/11/08 00:45:07;;;;;;;7.00;2.42;;;12.90;99.90;;;;;;5054625;28;20207;-76
2022/11/08 00:47:35;;;;;;;4.20;2.40;;;12.90;99.90;;;;;;5037320;28;20203;-76
2022/11/08 00:50:04;;;;;;;6.67;2.57;;;12.90;99.90;;;;;;5040204;28;20213;-76
2022/11/08 00:52:31;;;;;;;5.93;2.60;;;13.00;99.90;;;;;;5045188;28;20225;-76
2022/11/08 00:54:59;;;;;;;7.20;2.40;;;13.00;99.90;;;;;;5046012;28;20195;-76
2022/11/08 00:57:27;;;;;;;7.00;2.97;;;13.00;99.90;;;;;;5049807;28;20206;-76
2022/11/08 00:59:55;;;;;;;8.55;3.03;;;13.00;99.90;;;;;;5037498;28;20274;-76
2022/11/08 01:02:22;;;;;;;7.23;2.60;;;13.10;99.90;;;;;;5039545;28;20219;-76
2022/11/08 01:04:49;;;;;;;7.82;2.67;;;13.10;99.90;;;;;;5041906;28;20198;-77
2022/11/08 01:07:18;;;;;;;6.57;2.70;;;13.10;99.90;;;;;;5041962;28;20581;-76
2022/11/08 01:09:46;;;;;;;7.00;2.03;;;13.20;99.90;;;;;;5055574;28;20195;-77
2022/11/08 01:12:13;;;;;;;5.07;2.22;;;13.20;99.90;;;;;;5051577;28;20208;-76
2022/11/08 01:14:41;;;;;;;6.50;2.45;;;13.20;99.90;;;;;;5054171;28;20216;-76
2022/11/08 01:17:08;;;;;;;5.20;2.10;;;13.20;99.90;;;;;;5046286;28;20198;-76
2022/11/08 01:19:35;;;;;;;4.45;1.95;;;13.30;99.90;;;;;;5032824;28;20224;-77
2022/11/08 01:22:03;;;;;;;5.72;2.50;;;13.30;99.90;;;;;;5039361;28;20206;-76
2022/11/08 01:24:32;;;;;;;8.23;2.20;;;13.30;99.90;;;;;;5045397;28;20201;-76
2022/11/08 01:26:59;;;;;;;3.85;2.10;;;13.30;99.90;;;;;;5053435;28;20194;-76
2022/11/08 01:29:26;;;;;;;7.70;1.95;;;13.40;99.90;;;;;;5050659;28;20203;-77
2022/11/08 01:31:54;;;;;;;2.95;1.80;;;13.40;99.90;;;;;;5039517;28;20210;-76
2022/11/08 01:34:21;;;;;;;4.60;1.60;;;13.40;99.90;;;;;;5044570;28;20214;-79
2022/11/08 01:36:49;;;;;;;4.18;1.75;;;13.40;99.90;;;;;;5047010;28;20195;-76
2022/11/08 01:39:16;;;;;;;5.70;1.83;;;13.50;99.90;;;;;;5044535;28;20213;-76
2022/11/08 01:41:46;;;;;;;4.60;1.85;;;13.50;99.90;;;;;;5044388;28;20198;-77
2022/11/08 01:44:16;;;;;;;5.25;1.70;;;13.50;99.90;;;;;;5053287;28;20590;-76
2022/11/08 01:46:49;;;;;;;4.78;2.10;;;13.50;99.90;;;;;;5050018;28;20198;-76
2022/11/08 01:49:35;;;;;;;4.30;1.83;;;13.50;99.90;;;;;;5047926;28;20199;-76
2022/11/08 01:52:12;;;;;;;5.65;1.90;;;13.60;99.90;;;;;;5042517;28;20198;-76
2022/11/08 01:54:45;;;;;;;4.30;1.58;;;13.60;99.90;;;;;;5048070;28;20529;-76
2022/11/08 01:57:19;;;;;;;3.00;1.48;;;13.60;99.90;;;;;;5043905;28;20210;-76
2022/11/08 01:59:49;;;;;;;3.90;1.77;;;13.60;99.90;;;;;;5041012;28;20688;-79
2022/11/08 02:02:17;;;;;;;5.85;2.03;;;13.60;99.90;;;;;;5048232;28;20206;-77
2022/11/08 02:04:44;;;;;;;2.53;1.50;;;13.60;99.90;;;;;;5042850;28;20199;-78
2022/11/08 02:07:13;;;;;;;3.55;1.42;;;13.60;99.90;;;;;;5051622;28;20194;-76
2022/11/08 02:09:44;;;;;;;4.80;1.40;;;13.70;99.90;;;;;;5042285;28;20241;-76
2022/11/08 02:12:14;;;;;;;5.43;1.55;;;13.70;99.90;;;;;;5055208;28;20199;-76
2022/11/08 02:14:42;;;;;;;3.40;1.88;;;13.70;99.90;;;;;;5043854;28;20195;-77
2022/11/08 02:17:09;;;;;;;3.42;1.50;;;13.70;99.90;;;;;;5042693;28;20198;-76
2022/11/08 02:19:41;;;;;;;2.50;1.60;;;13.80;99.90;;;;;;5044947;28;20734;-76
2022/11/08 02:22:16;;;;;;;5.63;1.88;;;13.80;99.90;;;;;;5053875;28;20202;-76
2022/11/08 02:24:45;;;;;;;3.88;1.85;;;13.80;99.90;;;;;;5043740;28;20206;-76
2022/11/08 02:27:13;;;;;;;3.58;1.60;;;13.90;99.90;;;;;;5040430;28;20209;-76
2022/11/08 02:29:41;;;;;;;3.35;1.60;;;13.80;99.90;;;;;;5057932;28;20198;-76
2022/11/08 02:32:10;;;;;;;5.35;1.67;;;13.80;99.90;;;;;;5043085;28;20198;-77
2022/11/08 02:34:42;;;;;;;6.18;2.17;;;13.80;99.90;;;;;;5045579;28;20191;-76
2022/11/08 02:37:10;;;;;;;5.35;1.75;;;13.90;99.90;;;;;;5048002;28;20198;-76
2022/11/08 02:39:38;;;;;;;2.60;1.60;;;13.80;99.90;;;;;;5047839;28;20218;-77
2022/11/08 02:42:07;;;;;;;4.90;1.92;;;13.80;99.90;;;;;;5044211;28;20203;-76
2022/11/08 02:44:34;;;;;;;4.57;1.75;;;13.70;99.90;;;;;;5045375;28;20686;-77
2022/11/08 02:47:01;;;;;;;3.05;1.90;;;13.60;99.90;;;;;;5041658;28;20195;-76
2022/11/08 02:49:29;;;;;;;5.80;1.95;;;13.50;99.90;;;;;;5036035;28;20560;-76
2022/11/08 02:51:56;;;;;;;4.18;1.92;;;13.40;99.90;;;;;;5046531;28;20571;-80
2022/11/08 02:54:24;;;;;;;3.92;1.60;;;13.40;99.90;;;;;;5041430;28;20257;-76
2022/11/08 02:56:51;;;;;;;2.20;1.60;;;13.30;99.90;;;;;;5052651;28;20202;-76
2022/11/08 02:59:20;;;;;;;2.90;1.48;;;13.30;99.90;;;;;;5057284;28;20217;-77
2022/11/08 03:01:47;;;;;;;5.63;1.70;;;13.20;99.90;;;;;;5042464;28;20869;-76
2022/11/08 03:04:15;;;;;;;3.35;1.75;;;13.20;99.90;;;;;;5044757;28;20226;-77
2022/11/08 03:06:42;;;;;;;3.05;1.40;;;13.10;99.90;;;;;;5038162;28;20210;-76
2022/11/08 03:09:10;;;;;;;5.80;2.00;;;13.10;99.90;;;;;;5040382;28;20208;-76
2022/11/08 03:11:37;;;;;;;4.25;1.42;;;13.10;99.90;;;;;;5045561;28;20194;-76
2022/11/08 03:14:05;;;;;;;5.27;2.00;;;13.10;99.90;;;;;;5040033;28;20219;-76
2022/11/08 03:16:33;;;;;;;3.33;1.73;;;13.10;99.90;;;;;;5048715;28;20229;-76
2022/11/08 03:19:03;;;;;;;5.82;1.70;;;13.10;99.90;;;;;;5043327;28;20568;-76
2022/11/08 03:21:31;;;;;;;5.35;1.80;;;13.00;99.90;;;;;;5034846;28;20203;-76
2022/11/08 03:23:58;;;;;;;2.58;1.33;;;13.10;99.90;;;;;;5041073;28;20222;-76
2022/11/08 03:26:25;;;;;;;2.60;1.73;;;13.00;99.90;;;;;;5042943;28;20679;-76
2022/11/08 03:28:53;;;;;;;2.50;1.65;;;13.00;99.90;;;;;;5045817;28;20195;-76
2022/11/08 03:31:20;;;;;;;5.45;2.40;;;13.00;99.90;;;;;;5047229;28;20567;-76
2022/11/08 03:33:49;;;;;;;5.35;1.90;;;13.00;99.90;;;;;;5046509;28;20717;-77
2022/11/08 03:36:17;;;;;;;3.70;1.88;;;13.00;99.90;;;;;;5046893;28;20197;-76
2022/11/08 03:38:44;;;;;;;5.38;1.88;;;13.00;99.90;;;;;;5039687;28;20218;-76
2022/11/08 03:41:12;;;;;;;2.53;1.73;;;13.00;99.90;;;;;;5035789;28;20206;-76
2022/11/08 03:43:39;;;;;;;4.35;1.45;;;12.90;99.90;;;;;;5046748;28;20218;-76
2022/11/08 03:46:06;;;;;;;6.50;2.03;;;12.90;99.90;;;;;;5043598;28;20199;-77
2022/11/08 03:48:34;;;;;;;4.85;1.70;;;13.00;99.90;;;;;;5042650;28;20203;-77
2022/11/08 03:51:03;;;;;;;4.32;1.70;;;13.10;99.90;;;;;;5058838;28;20210;-76
2022/11/08 03:53:30;;;;;;;4.13;1.73;;;13.00;99.90;;;;;;5043302;28;20214;-76
2022/11/08 03:55:59;;;;;;;4.50;1.80;;;13.00;99.90;;;;;;5044613;28;20198;-76
2022/11/08 03:58:27;;;;;;;3.67;1.63;;;13.00;99.90;;;;;;5043457;28;20210;-76
2022/11/08 04:00:56;;;;;;;2.22;1.70;;;13.00;99.90;;;;;;5045800;28;20222;-77
2022/11/08 04:03:24;;;;;;;2.83;1.67;;;12.90;99.90;;;;;;5048020;28;20249;-78
2022/11/08 04:05:52;;;;;;;5.80;2.15;;;12.90;99.90;;;;;;5040841;28;20202;-76
2022/11/08 04:08:20;;;;;;;4.97;1.52;;;12.90;99.90;;;;;;5043134;28;20679;-76
2022/11/08 04:10:48;;;;;;;2.97;1.70;;;12.90;99.90;;;;;;5041271;28;20231;-79
2022/11/08 04:16:00;;;;;;;4.63;2.13;;;12.80;99.90;;;;;;5045577;28;20194;-77
2022/11/08 04:21:20;;;;;;;5.07;2.20;;;12.80;99.90;;;;;;5054591;28;20225;-77
2022/11/08 04:23:50;;;;;;;6.10;1.80;;;12.80;99.90;;;;;;5042061;28;20233;-76
2022/11/08 04:26:19;;;;;;;5.80;2.08;;;12.80;99.90;;;;;;5056701;28;20193;-76
2022/11/08 04:28:46;;;;;;;2.63;1.63;;;12.70;99.90;;;;;;5049913;28;20198;-76
2022/11/08 04:31:17;;;;;;;2.90;1.70;;;12.70;99.90;;;;;;5043141;28;20231;-76
2022/11/08 04:33:44;;;;;;;4.20;1.80;;;12.60;99.90;;;;;;5042671;28;20237;-76
2022/11/08 04:36:14;;;;;;;3.90;1.90;;;12.60;99.90;;;;;;5043863;28;20205;-76
2022/11/08 04:38:41;;;;;;;3.47;1.67;;;12.60;99.90;;;;;;5042858;28;20195;-76
2022/11/08 04:41:12;;;;;;;3.80;1.67;;;12.60;99.90;;;;;;5038242;28;20232;-76
2022/11/08 04:43:40;;;;;;;3.43;1.60;;;12.60;99.90;;;;;;5032472;28;20222;-77
2022/11/08 04:46:11;;;;;;;2.83;1.77;;;12.50;99.90;;;;;;5044465;28;20195;-77
2022/11/08 04:48:38;;;;;;;4.75;2.05;;;12.50;99.90;;;;;;5039829;28;20202;-76
2022/11/08 04:51:08;;;;;;;2.37;1.77;;;12.50;99.90;;;;;;5039201;28;20210;-76
2022/11/08 04:53:35;;;;;;;3.47;1.70;;;12.50;99.90;;;;;;5040220;28;20233;-76
2022/11/08 04:56:05;;;;;;;4.00;1.80;;;12.50;99.90;;;;;;5040153;28;20195;-76
2022/11/08 04:58:35;;;;;;;3.60;1.83;;;12.50;99.90;;;;;;5039059;28;20217;-76
2022/11/08 05:01:03;;;;;;;5.77;1.90;;;12.50;99.90;;;;;;5045898;28;20218;-76
2022/11/08 05:03:31;;;;;;;3.35;1.80;;;12.50;99.90;;;;;;5046621;28;20228;-76
2022/11/08 05:06:01;;;;;;;4.43;2.00;;;12.50;99.90;;;;;;5050340;28;20667;-76
2022/11/08 05:08:29;;;;;;;3.08;1.80;;;12.40;99.90;;;;;;5047896;28;20206;-76
2022/11/08 05:11:01;;;;;;;4.63;2.07;;;12.40;99.90;;;;;;5052921;28;20558;-76
2022/11/08 05:13:28;;;;;;;4.80;1.95;;;12.40;99.90;;;;;;5036631;28;20219;-76
2022/11/08 05:16:02;;;;;;;4.00;1.93;;;12.40;99.90;;;;;;5054805;28;20580;-77
2022/11/08 05:18:29;;;;;;;3.87;1.67;;;12.40;99.90;;;;;;5055384;28;20194;-76
2022/11/08 05:23:43;;;;;;;3.77;1.60;;;12.30;99.90;;;;;;5049635;28;20593;-76
2022/11/08 05:26:11;;;;;;;6.60;1.77;;;12.30;99.90;;;;;;5051924;28;20197;-76
2022/11/08 05:28:39;;;;;;;4.07;2.13;;;12.40;99.90;;;;;;5047705;28;20202;-76
2022/11/08 05:31:08;;;;;;;3.87;1.47;;;12.40;99.90;;;;;;5087896;23;20170;-77
2022/11/08 05:33:36;;;;;;;5.30;1.80;;;12.40;99.90;;;;;;5025891;28;20207;-77
2022/11/08 05:36:04;;;;;;;4.13;1.87;;;12.30;99.90;;;;;;5031306;28;20191;-77
2022/11/08 05:38:32;;;;;;;4.80;1.80;;;12.30;99.90;;;;;;5034456;28;20581;-76
2022/11/08 05:41:03;;;;;;;4.17;2.27;;;12.30;99.90;;;;;;5030617;28;20594;-76
2022/11/08 05:43:30;;;;;;;4.70;2.17;;;12.30;99.90;;;;;;5010341;28;20196;-77
2022/11/08 05:45:58;;;;;;;2.67;1.80;;;12.30;99.90;;;;;;5028754;28;20677;-77
2022/11/08 05:48:27;;;;;;;3.90;1.93;;;12.30;99.90;;;;;;5008613;28;20673;-77
2022/11/08 05:50:55;;;;;;;4.87;2.03;;;12.40;99.90;;;;;;5009967;28;20192;-77
2022/11/08 05:53:22;;;;;;;2.80;2.00;;;12.40;99.90;;;;;;5015769;28;20211;-77
2022/11/08 05:55:49;;;;;;;3.27;2.00;;;12.40;99.90;;;;;;5021068;28;20557;-77
2022/11/08 05:58:17;;;;;;;3.73;2.00;;;12.30;99.90;;;;;;5014534;28;20208;-77
2022/11/08 06:00:44;;;;;;;3.93;1.77;;;12.40;99.90;;;;;;5013176;28;20223;-80
2022/11/08 06:03:12;;;;;;;3.77;1.90;;;12.40;99.90;;;;;;5010106;28;20203;-80
2022/11/08 06:05:41;;;;;;;5.23;1.90;;;12.40;99.90;;;;;;5014694;28;20199;-80
2022/11/08 06:08:08;;;;;;;4.30;2.40;;;12.50;99.90;;;;;;5012957;28;21423;-79
2022/11/08 06:10:36;;;;;;;5.10;1.97;;;12.40;99.90;;;;;;5012521;28;20198;-79
2022/11/08 06:13:03;;;;;;;2.30;1.90;;;12.50;99.90;;;;;;5014050;28;20697;-80
2022/11/08 06:15:31;;;;;;;2.80;1.87;;;12.50;99.90;;;;;;5008346;28;20442;-80
2022/11/08 06:18:02;;;;;;;3.50;1.77;;;12.50;99.90;;;;;;5016854;28;20200;-80
2022/11/08 06:20:30;;;;;;;4.60;2.17;;;12.50;99.90;;;;;;5013873;28;20218;-80
2022/11/08 06:22:58;;;;;;;2.23;1.73;;;12.50;99.90;;;;;;5022292;28;20224;-81
2022/11/08 06:25:26;;;;;;;4.13;1.80;;;12.50;99.90;;;;;;5009171;28;20549;-80
2022/11/08 06:28:56;;;;;;;3.77;1.93;;;12.60;99.90;;;;;;5011079;28;20199;-80
2022/11/08 06:31:33;;;;;;;5.07;2.03;;;12.60;99.90;;;;;;4937746;28;20236;-80
2022/11/08 06:34:00;;;;;;;1.63;1.50;;;12.60;99.90;;;;;;5011059;28;20210;-82
2022/11/08 06:36:30;;;;;;;3.73;2.03;;;12.60;99.90;;;;;;5014495;28;20219;-82
2022/11/08 06:38:59;;;;;;;2.67;1.80;;;12.70;99.90;;;;;;5016608;28;20202;-82
2022/11/08 06:41:28;;;;;;;2.83;1.73;;;12.70;99.90;;;;;;5008669;28;20227;-82
2022/11/08 06:43:56;;;;;;;2.23;1.40;;;12.70;99.90;;;;;;5011666;28;20200;-82
2022/11/08 06:46:24;;;;;;;3.40;1.97;;;12.70;99.90;;;;;;5013669;28;20700;-81
2022/11/08 06:48:51;;;;;;;1.83;1.70;;;12.80;99.90;;;;;;5012531;28;20200;-82
2022/11/08 06:51:22;;;;;;;2.58;1.70;;;12.70;99.90;;;;;;5008858;28;20230;-82
2022/11/08 06:53:49;;;;;;;1.83;1.30;;;12.80;99.90;;;;;;5011466;28;20203;-82
2022/11/08 06:56:20;;;;;;;3.80;1.47;;;12.80;99.90;;;;;;5007001;28;20210;-81
2022/11/08 06:58:57;;;;;;;2.30;1.40;;;12.90;99.90;;;;;;5013676;28;20192;-80
2022/11/08 07:01:54;;;;;;;3.40;1.25;;;12.90;99.90;;;;;;5006276;28;20254;-81
2022/11/08 07:04:22;;;;;;;4.10;1.13;;;12.90;99.90;;;;;;5006284;28;20203;-82
2022/11/08 07:06:51;;;;;;;2.85;1.45;;;13.00;99.90;;;;;;5016217;28;20191;-81
2022/11/08 07:09:19;;;;;;;4.78;1.63;;;13.10;99.90;;;;;;5013256;28;20203;-81
2022/11/08 07:11:47;;;;;;;3.45;1.33;;;13.20;99.90;;;;;;5016218;28;20227;-81
2022/11/08 07:14:15;;;;;;;4.25;1.50;;;13.20;99.90;;;;;;5012901;28;20207;-80
2022/11/08 07:16:42;;;;;;;3.63;1.30;;;13.30;99.90;;;;;;5013227;28;20212;-79
2022/11/08 07:19:12;;;;;;;4.93;1.52;;;13.30;99.90;;;;;;5013207;28;20705;-79
2022/11/08 07:21:40;;;;;;;5.00;1.30;;;13.40;99.90;;;;;;5016767;28;20267;-81
2022/11/08 07:24:08;;;;;;;1.83;1.10;;;13.50;99.90;;;;;;5012346;28;20199;-81
2022/11/08 07:26:35;;;;;;;4.97;1.00;;;13.60;99.90;;;;;;5006132;28;20239;-80
2022/11/08 07:29:04;;;;;;;2.90;1.40;;;13.50;99.90;;;;;;5012986;28;20199;-80
2022/11/08 07:31:31;;;;;;;1.90;1.08;;;13.60;99.90;;;;;;5013679;28;20227;-80
2022/11/08 07:33:59;;;;;;;2.00;1.10;;;13.60;99.90;;;;;;5011530;28;20204;-80
2022/11/08 07:36:26;;;;;;;1.80;1.10;;;13.70;99.90;;;;;;5013361;28;20561;-81
2022/11/08 07:38:54;;;;;;;1.55;1.00;;;13.80;99.90;;;;;;5011872;28;20211;-81
2022/11/08 07:41:21;;;;;;;1.63;1.27;;;13.80;99.90;;;;;;5005398;28;20231;-80
2022/11/08 07:43:49;;;;;;;3.38;1.20;;;13.80;99.90;;;;;;5009039;28;20203;-80
2022/11/08 07:46:18;;;;;;;1.30;1.20;;;13.90;99.90;;;;;;5009753;28;20203;-80
2022/11/08 07:48:47;;;;;;;1.98;1.20;;;13.90;99.90;;;;;;5013871;28;20200;-80
2022/11/08 07:51:14;;;;;;;3.08;1.10;;;13.90;99.90;;;;;;5012366;28;20223;-80
2022/11/08 07:53:43;;;;;;;2.25;1.20;;;14.00;99.90;;;;;;5013198;28;20203;-80
2022/11/08 07:56:11;;;;;;;1.63;1.20;;;14.00;99.90;;;;;;5011986;28;20203;-80
2022/11/08 07:58:38;;;;;;;1.10;0.90;;;14.00;99.90;;;;;;5011654;28;20196;-80
2022/11/08 08:01:07;;;;;;;1.48;1.08;;;14.00;99.90;;;;;;5013767;28;20234;-80
2022/11/08 08:03:36;;;;;;;1.83;0.95;;;13.90;99.90;;;;;;5012592;28;20199;-80
2022/11/08 08:06:03;;;;;;;1.63;1.00;;;14.00;99.90;;;;;;5028759;28;20681;-80
2022/11/08 08:08:31;;;;;;;2.83;1.30;;;14.00;99.90;;;;;;5011014;28;20191;-81
2022/11/08 08:10:59;;;;;;;3.28;1.15;;;14.00;99.90;;;;;;5002259;28;20377;-80
2022/11/08 08:13:27;;;;;;;1.48;1.25;;;14.10;99.90;;;;;;5006219;28;20203;-81
2022/11/08 08:15:58;;;;;;;2.30;1.10;;;14.10;99.90;;;;;;5005496;28;20223;-81
2022/11/08 08:18:26;;;;;;;1.65;1.20;;;14.20;99.90;;;;;;5006527;28;20206;-80
2022/11/08 08:20:55;;;;;;;1.33;0.98;;;14.20;99.90;;;;;;4999002;28;20215;-81
2022/11/08 08:23:22;;;;;;;2.55;1.30;;;14.20;99.90;;;;;;5014852;28;20215;-80
2022/11/08 08:25:51;;;;;;;3.50;1.00;;;14.20;99.90;;;;;;5004447;28;20202;-81
2022/11/08 08:28:19;;;;;;;4.57;1.30;;;14.30;99.90;;;;;;5004478;28;20207;-78
2022/11/08 08:30:46;;;;;;;3.38;1.35;;;14.40;99.90;;;;;;5006458;28;20219;-80
2022/11/08 08:33:16;;;;;;;2.00;1.50;;;14.50;99.90;;;;;;5005991;28;20224;-81
2022/11/08 08:35:43;;;;;;;1.90;1.08;;;14.50;99.90;;;;;;5005608;28;20199;-81
2022/11/08 08:38:13;;;;;;;2.42;0.95;;;14.50;99.90;;;;;;5005572;28;20196;-80
2022/11/08 08:40:44;;;;;;;2.17;1.10;;;14.60;99.90;;;;;;5006392;28;20200;-81
2022/11/08 08:43:31;;;;;;;1.48;1.02;;;14.60;99.70;;;;;;5018251;28;20227;-79
2022/11/08 08:45:59;;;;;;;1.55;1.30;;;14.60;99.80;;;;;;5001700;28;20204;-78
2022/11/08 08:48:34;;;;;;;3.25;1.15;;;14.60;99.70;;;;;;5021972;28;20207;-79
2022/11/08 08:51:02;;;;;;;2.75;1.40;;;14.70;99.70;;;;;;5008727;28;20207;-79
2022/11/08 08:53:31;;;;;;;2.15;1.17;;;14.70;99.00;;;;;;5010642;28;20199;-79
2022/11/08 08:56:01;;;;;;;1.00;0.90;;;14.70;99.50;;;;;;5007223;28;20214;-79
2022/11/08 08:58:43;;;;;;;1.25;1.02;;;14.60;99.40;;;;;;5009750;28;20188;-77
2022/11/08 09:01:11;;;;;;;1.88;0.90;;;14.60;99.10;;;;;;5020152;28;20235;-78
2022/11/08 09:03:39;;;;;;;2.42;1.17;;;14.70;99.10;;;;;;5008627;28;20204;-79
2022/11/08 09:06:08;;;;;;;1.55;1.20;;;14.70;99.40;;;;;;5018804;28;20207;-79
2022/11/08 09:08:37;;;;;;;2.15;0.95;;;14.70;99.10;;;;;;5007617;28;20200;-79
2022/11/08 09:11:05;;;;;;;1.75;1.17;;;14.70;99.50;;;;;;5003538;28;20214;-79
2022/11/08 09:13:32;;;;;;;1.98;1.17;;;14.70;99.40;;;;;;5017746;28;20203;-78
2022/11/08 09:16:02;;;;;;;1.27;1.10;;;14.70;99.20;;;;;;5002938;28;20215;-78
2022/11/08 09:18:29;;;;;;;1.42;1.10;;;14.80;98.90;;;;;;4997244;28;20200;-78
2022/11/08 09:20:57;;;;;;;1.98;1.30;;;14.80;98.60;;;;;;4998211;28;20203;-78
2022/11/08 09:23:25;;;;;;;3.10;1.05;;;14.80;98.80;;;;;;4991554;28;20667;-78
2022/11/08 09:25:57;;;;;;;2.47;1.02;;;15.00;97.70;;;;;;4995581;28;20212;-78
2022/11/08 09:28:29;;;;;;;2.10;1.15;;;15.00;97.70;;;;;;5012436;28;20561;-78
2022/11/08 09:31:00;;;;;;;1.00;0.90;;;15.10;97.00;;;;;;4996521;28;20574;-78
2022/11/08 09:33:28;;;;;;;1.67;1.20;;;15.10;97.00;;;;;;4997759;28;20693;-78
2022/11/08 09:36:04;;;;;;;1.63;0.90;;;15.00;97.30;;;;;;5002697;28;20188;-78
2022/11/08 09:38:32;;;;;;;2.08;1.17;;;15.10;96.40;;;;;;5004707;28;20204;-78
2022/11/08 09:41:38;;;;;;;2.85;1.27;;;15.10;96.10;;;;;;5019706;28;20204;-78
2022/11/08 09:44:29;;;;;;;3.13;0.95;;;15.10;96.30;;;;;;5007036;28;20671;-80
2022/11/08 09:46:58;;;;;;;1.55;1.15;;;15.10;96.10;;;;;;5008678;28;20206;-78
2022/11/08 09:49:35;;;;;;;1.65;1.13;;;15.20;96.20;;;;;;5001818;28;20704;-78
2022/11/08 09:52:04;;;;;;;3.00;1.13;;;15.30;96.40;;;;;;5006328;28;20215;-79
2022/11/08 09:54:44;;;;;;;2.55;1.23;;;15.30;96.00;;;;;;5009351;28;20230;-80
2022/11/08 09:57:20;;;;;;;2.72;1.10;;;15.40;95.30;;;;;;5011860;28;20195;-80
2022/11/08 09:59:54;;;;;;;2.45;1.48;;;15.40;95.40;;;;;;4996297;28;20191;-80
2022/11/08 10:02:24;;;;;;;2.90;1.08;;;15.40;94.50;;;;;;5009421;28;20215;-80
2022/11/08 10:04:55;;;;;;;2.97;1.30;;;15.40;94.80;;;;;;5016366;28;20187;-80
2022/11/08 10:07:33;;;;;;;1.92;1.17;;;15.50;95.00;;;;;;5012554;28;20204;-81
2022/11/08 10:10:18;;;;;;;1.60;1.30;;;15.40;95.20;;;;;;5004838;28;20575;-80
2022/11/08 10:12:59;;;;;;;2.22;1.13;;;15.40;94.60;;;;;;5016835;28;20701;-80
2022/11/08 10:15:35;;;;;;;2.15;1.20;;;15.40;94.60;;;;;;5007674;28;20199;-79
2022/11/08 10:18:34;;;;;;;1.98;1.00;;;15.40;94.80;;;;;;5014467;28;20199;-79
2022/11/08 10:21:08;;;;;;;1.70;1.25;;;15.40;94.80;;;;;;5000591;28;20210;-80
2022/11/08 10:23:43;;;;;;;1.98;1.50;;;15.40;95.40;;;;;;5013642;28;20212;-80
2022/11/08 10:26:18;;;;;;;1.67;0.85;;;15.30;95.20;;;;;;5018342;28;20203;-79
2022/11/08 10:28:56;;;;;;;3.90;1.30;;;15.40;95.20;;;;;;5009092;28;20637;-82
2022/11/08 10:31:23;;;;;;;1.33;1.23;;;15.30;95.40;;;;;;5007810;28;20235;-81
2022/11/08 10:33:57;;;;;;;3.85;1.13;;;15.30;95.70;;;;;;5014387;28;20203;-83
2022/11/08 10:36:37;;;;;;;3.47;1.30;;;15.30;96.00;;;;;;5016275;28;20211;-83
2022/11/08 10:39:14;;;;;;;3.33;1.13;;;15.30;95.60;;;;;;5026226;28;20215;-82
2022/11/08 10:41:47;;;;;;;2.40;1.00;;;15.30;95.70;;;;;;5014685;28;20704;-83
2022/11/08 10:44:19;;;;;;;1.63;1.13;;;15.30;95.50;;;;;;5016388;28;20219;-83
2022/11/08 10:46:50;;;;;;;3.47;1.33;;;15.40;95.20;;;;;;5016589;28;20195;-82
2022/11/08 10:49:20;;;;;;;2.15;1.10;;;15.40;95.40;;;;;;5025368;28;20196;-84
2022/11/08 10:51:50;;;;;;;2.55;1.20;;;15.30;95.60;;;;;;5016053;28;20215;-83
2022/11/08 10:54:47;;;;;;;2.10;1.10;;;15.40;95.70;;;;;;5014871;28;20653;-82
2022/11/08 10:57:17;;;;;;;2.53;0.93;;;15.40;95.80;;;;;;5016550;28;20211;-83
2022/11/08 10:59:46;;;;;;;3.03;1.23;;;15.30;95.90;;;;;;5015514;28;20215;-83
2022/11/08 11:02:27;;;;;;;3.22;1.13;;;15.30;95.70;;;;;;5012383;28;20226;-83
2022/11/08 11:05:20;;;;;;;1.45;1.30;;;15.40;95.60;;;;;;5026837;28;20199;-83
2022/11/08 11:07:59;;;;;;;1.98;1.17;;;15.40;95.40;;;;;;5008531;28;20210;-82
2022/11/08 11:10:29;;;;;;;2.30;1.20;;;15.40;95.20;;;;;;5015929;28;20204;-83
2022/11/08 11:13:02;;;;;;;1.30;1.08;;;15.40;95.20;;;;;;5016102;28;20223;-82
2022/11/08 11:15:36;;;;;;;4.75;1.35;;;15.40;95.50;;;;;;5015141;28;20211;-83
2022/11/08 11:18:05;;;;;;;1.83;1.15;;;15.40;95.10;;;;;;5011333;28;20203;-83
2022/11/08 11:20:33;;;;;;;3.42;1.20;;;15.40;95.20;;;;;;5015735;28;20203;-83
2022/11/08 11:23:01;;;;;;;2.67;1.40;;;15.40;95.60;;;;;;5015221;28;20591;-82
2022/11/08 11:25:28;;;;;;;2.53;1.30;;;15.40;95.80;;;;;;5015275;28;20544;-83
2022/11/08 11:27:58;;;;;;;2.58;1.55;;;15.40;95.60;;;;;;5015278;28;20196;-83
2022/11/08 11:30:30;;;;;;;2.90;1.35;;;15.40;95.50;;;;;;5022108;28;20218;-82
2022/11/08 11:33:05;;;;;;;2.53;1.20;;;15.40;95.60;;;;;;5025049;28;20226;-82
2022/11/08 11:35:46;;;;;;;2.10;1.20;;;15.40;95.20;;;;;;5014906;28;20195;-83
2022/11/08 11:38:22;;;;;;;2.10;1.20;;;15.60;95.40;;;;;;5011789;28;20208;-83
2022/11/08 11:40:55;;;;;;;3.28;1.33;;;15.80;95.00;;;;;;5014870;28;20200;-83
2022/11/08 11:43:29;;;;;;;3.42;1.60;;;15.90;94.60;;;;;;5014999;28;20211;-83
2022/11/08 11:46:06;;;;;;;2.08;1.17;;;16.10;94.30;;;;;;5021804;28;20213;-84
2022/11/08 11:48:39;;;;;;;2.38;1.30;;;16.10;94.00;;;;;;5015773;28;20191;-83
2022/11/08 11:51:10;;;;;;;2.33;1.08;;;16.10;94.80;;;;;;5007918;28;20199;-83
2022/11/08 11:53:39;;;;;;;2.25;1.20;;;16.10;94.60;;;;;;5008394;28;20207;-82
2022/11/08 11:56:41;;;;;;;2.08;1.42;;;16.00;94.60;;;;;;5004920;28;20203;-83
2022/11/08 11:59:26;;;;;;;1.33;1.08;;;16.10;95.00;;;;;;5039374;28;20687;-82
2022/11/08 12:02:35;;;;;;;2.42;1.60;;;16.10;94.60;;;;;;5014302;28;20234;-83
2022/11/08 12:05:40;;;;;;;1.20;1.10;;;16.10;94.70;;;;;;5006424;28;20204;-83
2022/11/08 12:08:19;;;;;;;1.88;1.30;;;16.10;95.10;;;;;;5015101;28;20665;-82
2022/11/08 12:11:00;;;;;;;1.85;1.20;;;16.20;94.20;;;;;;5011004;28;20199;-83
2022/11/08 12:13:39;;;;;;;1.88;1.40;;;16.50;94.00;;;;;;5010612;28;20196;-83
2022/11/08 12:16:15;;;;;;;2.45;1.25;;;16.90;93.50;;;;;;5026220;28;20569;-83
2022/11/08 12:19:13;;;;;;;1.77;1.20;;;16.90;93.10;;;;;;5014696;28;20206;-83
2022/11/08 12:21:50;;;;;;;4.07;1.67;;;16.90;93.80;;;;;;5014091;28;20697;-83
2022/11/08 12:24:33;;;;;;;2.58;1.85;;;17.10;93.20;;;;;;5028989;28;20215;-83
2022/11/08 12:27:09;;;;;;;1.75;1.50;;;17.10;92.90;;;;;;5014542;28;20200;-83
2022/11/08 12:29:43;;;;;;;2.00;1.20;;;17.30;92.70;;;;;;5012497;28;20205;-83
2022/11/08 12:32:28;;;;;;;1.30;1.20;;;17.20;92.70;;;;;;5005433;28;20242;-80
2022/11/08 12:35:22;;;;;;;4.47;1.45;;;17.20;92.70;;;;;;5001455;28;20200;-80
2022/11/08 12:38:04;;;;;;;1.75;1.48;;;17.30;92.30;;;;;;5016562;28;20200;-83
2022/11/08 12:40:41;;;;;;;3.90;1.45;;;17.60;92.10;;;;;;5009592;28;20200;-81
2022/11/08 12:43:36;;;;;;;1.90;1.60;;;17.70;91.70;;;;;;5002753;28;20211;-81
2022/11/08 12:46:11;;;;;;;3.15;1.40;;;17.60;91.20;;;;;;5021007;28;20556;-81
2022/11/08 12:49:15;;;;;;;3.65;1.55;;;17.50;91.40;;;;;;5001412;28;20573;-81
2022/11/08 12:51:56;;;;;;;2.13;1.50;;;17.40;92.00;;;;;;4993506;28;20227;-80
2022/11/08 12:54:32;;;;;;;2.20;1.38;;;17.70;91.60;;;;;;5001130;28;20188;-79
2022/11/08 12:57:04;;;;;;;2.83;1.63;;;17.40;91.90;;;;;;5006400;28;20215;-80
2022/11/08 12:59:37;;;;;;;3.25;1.52;;;17.40;91.60;;;;;;5008844;28;20206;-81
2022/11/08 13:02:15;;;;;;;2.20;1.45;;;17.40;91.80;;;;;;5007874;28;20222;-81
2022/11/08 13:04:51;;;;;;;2.60;1.40;;;17.30;91.90;;;;;;5001759;28;20224;-80
2022/11/08 13:07:38;;;;;;;3.95;1.58;;;17.00;92.50;;;;;;5003403;28;20559;-80
2022/11/08 13:10:16;;;;;;;4.10;1.55;;;17.00;94.20;;;;;;5022358;28;20210;-80
2022/11/08 13:13:03;;;;;;;3.28;1.42;;;16.90;93.00;;;;;;5023386;28;20219;-80
2022/11/08 13:15:34;;;;;;;3.00;1.42;;;16.90;93.30;;;;;;5023782;28;20199;-82
2022/11/08 13:18:33;;;;;;;2.05;1.30;;;16.80;93.70;;;;;;5007971;28;20200;-81
2022/11/08 13:21:33;;;;;;;3.13;1.58;;;16.70;93.90;;;;;;5009051;28;20203;-81
2022/11/08 13:24:35;;;;;;;3.17;1.55;;;16.70;94.10;;;;;;5003255;28;20212;-82
2022/11/08 13:27:34;;;;;;;4.45;1.42;;;17.00;93.60;;;;;;5008679;28;20199;-82
2022/11/08 13:30:31;;;;;;;2.30;1.50;;;17.30;93.20;;;;;;5006446;28;20203;-80